地図

経路データ

SID SEASON NUMBER BASIN SUBBASIN NAME ISO_TIME NATURE LAT LON WMO_WIND WMO_PRES WMO_AGENCY TRACK_TYPE DIST2LAND LANDFALL IFLAG USA_AGENCY USA_ATCF_ID USA_LAT USA_LON USA_RECORD USA_STATUS USA_WIND USA_PRES USA_SSHS USA_R34_NE USA_R34_SE USA_R34_SW USA_R34_NW USA_R50_NE USA_R50_SE USA_R50_SW USA_R50_NW USA_R64_NE USA_R64_SE USA_R64_SW USA_R64_NW USA_POCI USA_ROCI USA_RMW USA_EYE TOKYO_LAT TOKYO_LON TOKYO_GRADE TOKYO_WIND TOKYO_PRES TOKYO_R50_DIR TOKYO_R50_LONG TOKYO_R50_SHORT TOKYO_R30_DIR TOKYO_R30_LONG TOKYO_R30_SHORT TOKYO_LAND CMA_LAT CMA_LON CMA_CAT CMA_WIND CMA_PRES HKO_LAT HKO_LON HKO_CAT HKO_WIND HKO_PRES NEWDELHI_LAT NEWDELHI_LON NEWDELHI_GRADE NEWDELHI_WIND NEWDELHI_PRES NEWDELHI_CI NEWDELHI_DP NEWDELHI_POCI REUNION_LAT REUNION_LON REUNION_TYPE REUNION_WIND REUNION_PRES REUNION_TNUM REUNION_CI REUNION_RMW REUNION_R34_NE REUNION_R34_SE REUNION_R34_SW REUNION_R34_NW REUNION_R50_NE REUNION_R50_SE REUNION_R50_SW REUNION_R50_NW REUNION_R64_NE REUNION_R64_SE REUNION_R64_SW REUNION_R64_NW BOM_LAT BOM_LON BOM_TYPE BOM_WIND BOM_PRES BOM_TNUM BOM_CI BOM_RMW BOM_R34_NE BOM_R34_SE BOM_R34_SW BOM_R34_NW BOM_R50_NE BOM_R50_SE BOM_R50_SW BOM_R50_NW BOM_R64_NE BOM_R64_SE BOM_R64_SW BOM_R64_NW BOM_ROCI BOM_POCI BOM_EYE BOM_POS_METHOD BOM_PRES_METHOD NADI_LAT NADI_LON NADI_CAT NADI_WIND NADI_PRES WELLINGTON_LAT WELLINGTON_LON WELLINGTON_WIND WELLINGTON_PRES DS824_LAT DS824_LON DS824_STAGE DS824_WIND DS824_PRES TD9636_LAT TD9636_LON TD9636_STAGE TD9636_WIND TD9636_PRES TD9635_LAT TD9635_LON TD9635_WIND TD9635_PRES TD9635_ROCI NEUMANN_LAT NEUMANN_LON NEUMANN_CLASS NEUMANN_WIND NEUMANN_PRES MLC_LAT MLC_LON MLC_CLASS MLC_WIND MLC_PRES USA_GUST BOM_GUST BOM_GUST_PER REUNION_GUST REUNION_GUST_PER USA_SEAHGT USA_SEARAD_NE USA_SEARAD_SE USA_SEARAD_SW USA_SEARAD_NW STORM_SPEED STORM_DIR
1871001S12089 1871 2 SI MM NOT_NAMED 1871-01-01 06:00:00 NR -11.6000 88.5000 main 1596 1596 _____O________ -1 -11.6000 88.5000 99 9.90000 1 243
1871001S12089 1871 2 SI MM NOT_NAMED 1871-01-01 09:00:00 NR -11.6310 88.4388 main 1604 1604 _____P________ -1 -11.6310 88.4388 99 1 243
1871001S12089 1871 2 SI MM NOT_NAMED 1871-01-01 12:00:00 NR -11.6651 88.3727 main 1612 1612 _____P________ -1 -11.6651 88.3727 99 2 242
1871001S12089 1871 2 SI MM NOT_NAMED 1871-01-01 15:00:00 NR -11.7051 88.2968 main 1620 1620 _____P________ -1 -11.7051 88.2968 99 2 241
1871001S12089 1871 2 SI MM NOT_NAMED 1871-01-01 18:00:00 NR -11.7541 88.2064 main 1635 1635 _____P________ -1 -11.7541 88.2064 99 2 241
1871001S12089 1871 2 SI MM NOT_NAMED 1871-01-01 21:00:00 NR -11.8152 88.0964 main 1643 1643 _____P________ -1 -11.8152 88.0964 99 3 240
1871001S12089 1871 2 SI MM NOT_NAMED 1871-01-02 00:00:00 NR -11.8912 87.9619 main 1659 1659 _____P________ -1 -11.8912 87.9619 99 3 240
1871001S12089 1871 2 SI MM NOT_NAMED 1871-01-02 03:00:00 NR -11.9851 87.7981 main 1682 1682 _____P________ -1 -11.9851 87.7981 99 4 239
1871001S12089 1871 2 SI MM NOT_NAMED 1871-01-02 06:00:00 NR -12.1000 87.6000 main 1706 1706 _____O________ -1 -12.1000 87.6000 99 9.90000 5 239
1871001S12089 1871 2 SI MM NOT_NAMED 1871-01-02 09:00:00 NR -12.2375 87.3649 main 1730 1730 _____P________ -1 -12.2375 87.3649 99 6 239
1871001S12089 1871 2 SI MM NOT_NAMED 1871-01-02 12:00:00 NR -12.3944 87.0998 main 1769 1769 _____P________ -1 -12.3944 87.0998 99 6 239
1871001S12089 1871 2 SI MM NOT_NAMED 1871-01-02 15:00:00 NR -12.5663 86.8139 main 1808 1808 _____P________ -1 -12.5663 86.8139 99 7 238
1871001S12089 1871 2 SI MM NOT_NAMED 1871-01-02 18:00:00 NR -12.7489 86.5165 main 1840 1840 _____P________ -1 -12.7489 86.5165 99 7 237
1871001S12089 1871 2 SI MM NOT_NAMED 1871-01-02 21:00:00 NR -12.9378 86.2170 main 1879 1879 _____P________ -1 -12.9378 86.2170 99 7 237
1871001S12089 1871 2 SI MM NOT_NAMED 1871-01-03 00:00:00 NR -13.1288 85.9247 main 1918 1918 _____P________ -1 -13.1288 85.9247 99 7 235
1871001S12089 1871 2 SI MM NOT_NAMED 1871-01-03 03:00:00 NR -13.3176 85.6493 main 1958 1958 _____P________ -1 -13.3176 85.6493 99 6 234
1871001S12089 1871 2 SI MM NOT_NAMED 1871-01-03 06:00:00 NR -13.5000 85.4000 main 1989 1989 _____O________ -1 -13.5000 85.4000 99 9.90000 6 232
1871001S12089 1871 2 SI MM NOT_NAMED 1871-01-03 09:00:00 NR -13.6589 85.2052 main 2020 2020 _____P________ -1 -13.6589 85.2052 99 5 229
1871001S12089 1871 2 SI MM NOT_NAMED 1871-01-03 12:00:00 NR -13.8137 85.0331 main 2043 2043 _____P________ -1 -13.8137 85.0331 99 4 226
1871001S12089 1871 2 SI MM NOT_NAMED 1871-01-03 15:00:00 NR -13.9652 84.8805 main 2066 2066 _____P________ -1 -13.9652 84.8805 99 4 223
1871001S12089 1871 2 SI MM NOT_NAMED 1871-01-03 18:00:00 NR -14.1142 84.7442 main 2090 2090 _____P________ -1 -14.1142 84.7442 99 4 220
1871001S12089 1871 2 SI MM NOT_NAMED 1871-01-03 21:00:00 NR -14.2614 84.6212 main 2113 2113 _____P________ -1 -14.2614 84.6212 99 4 218
1871001S12089 1871 2 SI MM NOT_NAMED 1871-01-04 00:00:00 NR -14.4077 84.5082 main 2128 2128 _____P________ -1 -14.4077 84.5082 99 4 216
1871001S12089 1871 2 SI MM NOT_NAMED 1871-01-04 03:00:00 NR -14.5536 84.4022 main 2151 2151 _____P________ -1 -14.5536 84.4022 99 4 215
1871001S12089 1871 2 SI MM NOT_NAMED 1871-01-04 06:00:00 NR -14.7000 84.3000 main 2166 2166 _____O________ -1 -14.7000 84.3000 99 9.90000 3 218
1871001S12089 1871 2 SI MM NOT_NAMED 1871-01-04 09:00:00 NR -14.8251 84.1819 main 2182 2182 _____P________ -1 -14.8251 84.1819 99 3 222
1871001S12089 1871 2 SI MM NOT_NAMED 1871-01-04 12:00:00 NR -14.9471 84.0698 main 2197 2197 _____P________ -1 -14.9471 84.0698 99 3 221
1871001S12089 1871 2 SI MM NOT_NAMED 1871-01-04 15:00:00 NR -15.0712 83.9632 main 2220 2220 _____P________ -1 -15.0712 83.9632 99 3 219
1871001S12089 1871 2 SI MM NOT_NAMED 1871-01-04 18:00:00 NR -15.2024 83.8617 main 2235 2235 _____P________ -1 -15.2024 83.8617 99 3 215
1871001S12089 1871 2 SI MM NOT_NAMED 1871-01-04 21:00:00 NR -15.3459 83.7651 main 2251 2251 _____P________ -1 -15.3459 83.7651 99 4 211
1871001S12089 1871 2 SI MM NOT_NAMED 1871-01-05 00:00:00 NR -15.5065 83.6729 main 2274 2274 _____P________ -1 -15.5065 83.6729 99 4 206
1871001S12089 1871 2 SI MM NOT_NAMED 1871-01-05 03:00:00 NR -15.6896 83.5846 main 2297 2297 _____P________ -1 -15.6896 83.5846 99 4 203
1871001S12089 1871 2 SI MM NOT_NAMED 1871-01-05 06:00:00 NR -15.9000 83.5000 main 2319 2319 _____O________ -1 -15.9000 83.5000 99 9.90000 5 201
1871001S12089 1871 2 SI MM NOT_NAMED 1871-01-05 09:00:00 NR -16.1502 83.4045 main 2350 2350 _____P________ -1 -16.1502 83.4045 99 6 199
1871001S12089 1871 2 SI MM NOT_NAMED 1871-01-05 12:00:00 NR -16.4276 83.3118 main 2373 2373 _____P________ -1 -16.4276 83.3118 99 6 197
1871001S12089 1871 2 SI MM NOT_NAMED 1871-01-05 15:00:00 NR -16.7275 83.2234 main 2403 2403 _____P________ -1 -16.7275 83.2234 99 6 195
1871001S12089 1871 2 SI MM NOT_NAMED 1871-01-05 18:00:00 NR -17.0452 83.1408 main 2434 2434 _____P________ -1 -17.0452 83.1408 99 7 193
1871001S12089 1871 2 SI MM NOT_NAMED 1871-01-05 21:00:00 NR -17.3760 83.0656 main 2465 2465 _____P________ -1 -17.3760 83.0656 99 7 192
1871001S12089 1871 2 SI MM NOT_NAMED 1871-01-06 00:00:00 NR -17.7151 82.9994 main 2496 2496 _____P________ -1 -17.7151 82.9994 99 7 190
1871001S12089 1871 2 SI MM NOT_NAMED 1871-01-06 03:00:00 NR -18.0581 82.9436 main 2534 2534 _____P________ -1 -18.0581 82.9436 99 7 188
1871001S12089 1871 2 SI MM NOT_NAMED 1871-01-06 06:00:00 NR -18.4000 82.9000 main 2558 2558 _____O________ -1 -18.4000 82.9000 99 9.90000 7 186
1871001S12089 1871 2 SI MM NOT_NAMED 1871-01-06 09:00:00 NR -18.7566 82.8679 main 2590 2590 _____P________ -1 -18.7566 82.8679 99 7 184
1871001S12089 1871 2 SI MM NOT_NAMED 1871-01-06 12:00:00 NR -19.1198 82.8481 main 2618 2612 _____P________ -1 -19.1198 82.8481 99 7 181
1871001S12089 1871 2 SI MM NOT_NAMED 1871-01-06 15:00:00 NR -19.4818 82.8391 main 2612 2609 _____P________ -1 -19.4818 82.8391 99 7 182
1871001S12089 1871 2 SI MM NOT_NAMED 1871-01-06 18:00:00 NR -19.8348 82.8392 main 2609 2605 _____P________ -1 -19.8348 82.8392 99 7 0
1871001S12089 1871 2 SI MM NOT_NAMED 1871-01-06 21:00:00 NR -20.1709 82.8469 main 2605 2605 _____P________ -1 -20.1709 82.8469 99 7 179
1871001S12089 1871 2 SI MM NOT_NAMED 1871-01-07 00:00:00 NR -20.4824 82.8607 main 2613 2611 _____P________ -1 -20.4824 82.8607 99 6 176
1871001S12089 1871 2 SI MM NOT_NAMED 1871-01-07 03:00:00 NR -20.7614 82.8790 main 2610 2609 _____P________ -1 -20.7614 82.8790 99 5 176
1871001S12089 1871 2 SI MM NOT_NAMED 1871-01-07 06:00:00 NR -21.0000 82.9000 main 2609 2608 _____O________ -1 -21.0000 82.9000 99 9.90000 4 175
1871001S12089 1871 2 SI MM NOT_NAMED 1871-01-07 09:00:00 NR -21.1928 82.9225 main 2608 2608 _____P________ -1 -21.1928 82.9225 99 3 175
1871001S12089 1871 2 SI MM NOT_NAMED 1871-01-07 12:00:00 NR -21.3435 82.9460 main 2608 2607 _____P________ -1 -21.3435 82.9460 99 3 171
1871001S12089 1871 2 SI MM NOT_NAMED 1871-01-07 15:00:00 NR -21.4580 82.9703 main 2617 2617 _____P________ -1 -21.4580 82.9703 99 2 171
1871001S12089 1871 2 SI MM NOT_NAMED 1871-01-07 18:00:00 NR -21.5425 82.9954 main 2617 2617 _____P________ -1 -21.5425 82.9954 99 2 168
1871001S12089 1871 2 SI MM NOT_NAMED 1871-01-07 21:00:00 NR -21.6030 83.0211 main 2617 2617 _____P________ -1 -21.6030 83.0211 99 1 157
1871001S12089 1871 2 SI MM NOT_NAMED 1871-01-08 00:00:00 NR -21.6453 83.0471 main 2617 2617 _____P________ -1 -21.6453 83.0471 99 1 145
1871001S12089 1871 2 SI MM NOT_NAMED 1871-01-08 03:00:00 NR -21.6757 83.0735 main 2627 2627 _____P________ -1 -21.6757 83.0735 99 1 134
1871001S12089 1871 2 SI MM NOT_NAMED 1871-01-08 06:00:00 NR -21.7000 83.1000 main 2627 _____O________ -1 -21.7000 83.1000 99 9.90000 1 0

IBTrACS Databaseについて

本データベースは、米国NOAAが公開する1842年以降の世界の熱帯低気圧のベストトラックデータアーカイブInternational Best Track Archive for Climate Stewardship (IBTrACS)を、ウェブで閲覧しやすい形式に変換したものです。

最終更新日:2021-11-26